sensor_id;sensor_type;location;lat;lon;timestamp;pressure;altitude;pressure_sealevel;temperature;humidity
74403;BME280;62837;51.082;13.744;2023-02-15T00:02:15;101951.75;;;3.38;75.43
74403;BME280;62837;51.082;13.744;2023-02-15T00:04:46;101956.41;;;3.53;75.38
74403;BME280;62837;51.082;13.744;2023-02-15T00:07:18;101954.90;;;3.66;75.13
74403;BME280;62837;51.082;13.744;2023-02-15T00:09:49;101956.23;;;3.74;74.33
74403;BME280;62837;51.082;13.744;2023-02-15T00:12:20;101959.58;;;3.78;73.34
74403;BME280;62837;51.082;13.744;2023-02-15T00:14:51;101957.22;;;3.72;72.16
74403;BME280;62837;51.082;13.744;2023-02-15T00:17:21;101959.29;;;3.67;72.35
74403;BME280;62837;51.082;13.744;2023-02-15T00:19:52;101953.35;;;3.62;72.20
74403;BME280;62837;51.082;13.744;2023-02-15T00:22:23;101950.76;;;3.64;73.18
74403;BME280;62837;51.082;13.744;2023-02-15T00:24:53;101946.01;;;3.70;72.62
74403;BME280;62837;51.082;13.744;2023-02-15T00:27:24;101944.54;;;3.72;71.81
74403;BME280;62837;51.082;13.744;2023-02-15T00:29:55;101943.81;;;3.66;71.34
74403;BME280;62837;51.082;13.744;2023-02-15T00:32:26;101942.48;;;3.65;72.28
74403;BME280;62837;51.082;13.744;2023-02-15T00:34:57;101944.14;;;3.69;72.02
74403;BME280;62837;51.082;13.744;2023-02-15T00:37:28;101944.77;;;3.73;72.17
74403;BME280;62837;51.082;13.744;2023-02-15T00:39:58;101943.55;;;3.79;72.21
74403;BME280;62837;51.082;13.744;2023-02-15T00:42:32;101938.30;;;3.82;72.04
74403;BME280;62837;51.082;13.744;2023-02-15T00:45:03;101942.38;;;3.86;71.15
74403;BME280;62837;51.082;13.744;2023-02-15T00:47:34;101938.55;;;3.80;69.73
74403;BME280;62837;51.082;13.744;2023-02-15T00:50:07;101936.33;;;3.62;68.70
74403;BME280;62837;51.082;13.744;2023-02-15T00:52:38;101931.38;;;3.37;69.26
74403;BME280;62837;51.082;13.744;2023-02-15T00:55:09;101928.88;;;3.31;71.25
74403;BME280;62837;51.082;13.744;2023-02-15T00:57:40;101925.49;;;3.34;70.48
74403;BME280;62837;51.082;13.744;2023-02-15T01:02:43;101919.21;;;3.23;71.30
74403;BME280;62837;51.082;13.744;2023-02-15T01:05:15;101916.27;;;3.31;71.88
74403;BME280;62837;51.082;13.744;2023-02-15T01:07:45;101920.16;;;3.45;71.89
74403;BME280;62837;51.082;13.744;2023-02-15T01:10:17;101918.27;;;3.52;70.55
74403;BME280;62837;51.082;13.744;2023-02-15T01:12:51;101915.66;;;3.52;70.14
74403;BME280;62837;51.082;13.744;2023-02-15T01:15:22;101910.23;;;3.46;69.32
74403;BME280;62837;51.082;13.744;2023-02-15T01:17:53;101911.36;;;3.44;70.13
74403;BME280;62837;51.082;13.744;2023-02-15T01:20:26;101908.74;;;3.46;70.34
74403;BME280;62837;51.082;13.744;2023-02-15T01:22:58;101910.21;;;3.51;70.03
74403;BME280;62837;51.082;13.744;2023-02-15T01:25:29;101910.70;;;3.50;69.78
74403;BME280;62837;51.082;13.744;2023-02-15T01:28:00;101911.13;;;3.44;68.43
74403;BME280;62837;51.082;13.744;2023-02-15T01:30:30;101908.46;;;3.36;68.66
74403;BME280;62837;51.082;13.744;2023-02-15T01:33:01;101909.03;;;3.28;68.69
74403;BME280;62837;51.082;13.744;2023-02-15T01:35:33;101904.96;;;3.26;69.58
74403;BME280;62837;51.082;13.744;2023-02-15T01:38:04;101901.35;;;3.19;68.56
74403;BME280;62837;51.082;13.744;2023-02-15T01:40:34;101902.72;;;3.19;69.48
74403;BME280;62837;51.082;13.744;2023-02-15T01:43:11;101895.86;;;3.17;69.79
74403;BME280;62837;51.082;13.744;2023-02-15T01:45:42;101888.56;;;3.14;69.06
74403;BME280;62837;51.082;13.744;2023-02-15T01:48:20;101888.75;;;3.15;69.94
74403;BME280;62837;51.082;13.744;2023-02-15T01:50:55;101884.80;;;3.21;70.00
74403;BME280;62837;51.082;13.744;2023-02-15T01:53:29;101882.44;;;3.29;69.83
74403;BME280;62837;51.082;13.744;2023-02-15T01:56:06;101879.14;;;3.36;69.99
74403;BME280;62837;51.082;13.744;2023-02-15T01:58:39;101872.55;;;3.39;68.93
74403;BME280;62837;51.082;13.744;2023-02-15T02:01:11;101863.65;;;3.41;69.35
74403;BME280;62837;51.082;13.744;2023-02-15T02:03:47;101861.84;;;3.44;68.97
74403;BME280;62837;51.082;13.744;2023-02-15T02:06:21;101862.21;;;3.44;68.96
74403;BME280;62837;51.082;13.744;2023-02-15T02:08:54;101859.98;;;3.40;68.03
74403;BME280;62837;51.082;13.744;2023-02-15T02:11:26;101853.69;;;3.27;67.81
74403;BME280;62837;51.082;13.744;2023-02-15T02:13:57;101853.63;;;3.19;68.13
74403;BME280;62837;51.082;13.744;2023-02-15T02:16:34;101854.13;;;3.13;68.77
74403;BME280;62837;51.082;13.744;2023-02-15T02:19:44;101849.23;;;3.12;68.88
74403;BME280;62837;51.082;13.744;2023-02-15T02:28:46;101844.96;;;3.15;69.01
74403;BME280;62837;51.082;13.744;2023-02-15T02:31:35;101843.42;;;3.22;69.96
74403;BME280;62837;51.082;13.744;2023-02-15T02:34:12;101843.70;;;3.26;68.65
74403;BME280;62837;51.082;13.744;2023-02-15T02:36:52;101846.33;;;3.22;68.16
74403;BME280;62837;51.082;13.744;2023-02-15T02:39:33;101844.36;;;3.14;67.54
74403;BME280;62837;51.082;13.744;2023-02-15T02:42:15;101840.02;;;3.04;67.67
74403;BME280;62837;51.082;13.744;2023-02-15T02:44:49;101832.89;;;2.97;67.20
74403;BME280;62837;51.082;13.744;2023-02-15T02:47:26;101836.25;;;2.86;67.96
74403;BME280;62837;51.082;13.744;2023-02-15T02:50:03;101830.64;;;2.77;67.63
74403;BME280;62837;51.082;13.744;2023-02-15T02:52:40;101834.70;;;2.67;67.32
74403;BME280;62837;51.082;13.744;2023-02-15T02:55:15;101829.98;;;2.59;67.50
74403;BME280;62837;51.082;13.744;2023-02-15T02:57:53;101829.05;;;2.53;67.35
74403;BME280;62837;51.082;13.744;2023-02-15T03:00:25;101827.25;;;2.51;67.99
74403;BME280;62837;51.082;13.744;2023-02-15T03:03:03;101827.86;;;2.50;67.96
74403;BME280;62837;51.082;13.744;2023-02-15T03:05:40;101825.46;;;2.49;67.58
74403;BME280;62837;51.082;13.744;2023-02-15T03:08:12;101820.21;;;2.38;67.50
74403;BME280;62837;51.082;13.744;2023-02-15T03:10:54;101828.39;;;2.28;67.64
74403;BME280;62837;51.082;13.744;2023-02-15T03:13:26;101828.25;;;2.13;67.92
74403;BME280;62837;51.082;13.744;2023-02-15T03:15:58;101829.95;;;2.09;69.19
74403;BME280;62837;51.082;13.744;2023-02-15T03:18:50;101830.79;;;2.11;69.76
74403;BME280;62837;51.082;13.744;2023-02-15T03:21:32;101830.02;;;2.10;69.89
74403;BME280;62837;51.082;13.744;2023-02-15T03:24:10;101825.73;;;2.14;69.50
74403;BME280;62837;51.082;13.744;2023-02-15T03:26:48;101828.05;;;2.15;68.62
74403;BME280;62837;51.082;13.744;2023-02-15T03:29:23;101828.66;;;2.14;70.31
74403;BME280;62837;51.082;13.744;2023-02-15T03:31:58;101824.08;;;2.28;70.30
74403;BME280;62837;51.082;13.744;2023-02-15T03:34:31;101825.23;;;2.42;70.19
74403;BME280;62837;51.082;13.744;2023-02-15T03:37:08;101825.90;;;2.53;69.93
74403;BME280;62837;51.082;13.744;2023-02-15T03:39:44;101827.19;;;2.66;70.06
74403;BME280;62837;51.082;13.744;2023-02-15T03:42:22;101824.03;;;2.76;69.21
74403;BME280;62837;51.082;13.744;2023-02-15T03:44:59;101830.08;;;2.69;67.88
74403;BME280;62837;51.082;13.744;2023-02-15T03:47:34;101828.95;;;2.52;67.51
74403;BME280;62837;51.082;13.744;2023-02-15T03:50:09;101828.79;;;2.33;67.72
74403;BME280;62837;51.082;13.744;2023-02-15T03:52:58;101827.05;;;2.06;67.97
74403;BME280;62837;51.082;13.744;2023-02-15T03:55:30;101825.53;;;1.80;68.07
74403;BME280;62837;51.082;13.744;2023-02-15T03:58:01;101823.83;;;1.58;68.23
74403;BME280;62837;51.082;13.744;2023-02-15T04:00:54;101824.64;;;1.37;68.99
74403;BME280;62837;51.082;13.744;2023-02-15T04:03:48;101829.17;;;1.17;69.16
74403;BME280;62837;51.082;13.744;2023-02-15T04:06:22;101831.84;;;1.01;69.68
74403;BME280;62837;51.082;13.744;2023-02-15T04:08:53;101829.88;;;0.86;69.88
74403;BME280;62837;51.082;13.744;2023-02-15T04:11:40;101829.70;;;0.76;70.53
74403;BME280;62837;51.082;13.744;2023-02-15T04:14:11;101827.95;;;0.67;70.36
74403;BME280;62837;51.082;13.744;2023-02-15T04:16:55;101831.84;;;0.60;70.70
74403;BME280;62837;51.082;13.744;2023-02-15T04:19:26;101828.36;;;0.52;70.71
74403;BME280;62837;51.082;13.744;2023-02-15T04:22:15;101826.13;;;0.43;71.07
74403;BME280;62837;51.082;13.744;2023-02-15T04:25:03;101823.52;;;0.35;70.92
74403;BME280;62837;51.082;13.744;2023-02-15T04:27:42;101823.30;;;0.30;71.04
74403;BME280;62837;51.082;13.744;2023-02-15T04:30:15;101822.91;;;0.27;71.21
74403;BME280;62837;51.082;13.744;2023-02-15T04:32:46;101822.27;;;0.23;70.90
74403;BME280;62837;51.082;13.744;2023-02-15T04:35:18;101820.27;;;0.18;70.85
74403;BME280;62837;51.082;13.744;2023-02-15T04:37:48;101822.66;;;0.11;70.99
74403;BME280;62837;51.082;13.744;2023-02-15T04:40:19;101825.88;;;0.07;71.58
74403;BME280;62837;51.082;13.744;2023-02-15T04:42:50;101819.61;;;0.04;71.52
74403;BME280;62837;51.082;13.744;2023-02-15T04:45:21;101825.95;;;0.01;71.70
74403;BME280;62837;51.082;13.744;2023-02-15T04:47:52;101819.85;;;-0.01;71.85
74403;BME280;62837;51.082;13.744;2023-02-15T04:50:22;101816.42;;;-0.04;71.62
74403;BME280;62837;51.082;13.744;2023-02-15T04:52:53;101810.98;;;-0.11;71.95
74403;BME280;62837;51.082;13.744;2023-02-15T04:55:24;101808.94;;;-0.17;72.30
74403;BME280;62837;51.082;13.744;2023-02-15T04:57:56;101806.62;;;-0.19;72.69
74403;BME280;62837;51.082;13.744;2023-02-15T05:00:26;101806.96;;;-0.25;73.02
74403;BME280;62837;51.082;13.744;2023-02-15T05:02:58;101803.95;;;-0.30;73.34
74403;BME280;62837;51.082;13.744;2023-02-15T05:05:28;101801.00;;;-0.33;73.45
74403;BME280;62837;51.082;13.744;2023-02-15T05:07:59;101802.83;;;-0.31;73.64
74403;BME280;62837;51.082;13.744;2023-02-15T05:10:30;101796.67;;;-0.31;73.76
74403;BME280;62837;51.082;13.744;2023-02-15T05:13:00;101798.26;;;-0.31;73.59
74403;BME280;62837;51.082;13.744;2023-02-15T05:15:31;101793.26;;;-0.31;73.76
74403;BME280;62837;51.082;13.744;2023-02-15T05:18:02;101793.38;;;-0.32;73.37
74403;BME280;62837;51.082;13.744;2023-02-15T05:20:32;101796.14;;;-0.37;73.31
74403;BME280;62837;51.082;13.744;2023-02-15T05:23:03;101793.36;;;-0.41;72.96
74403;BME280;62837;51.082;13.744;2023-02-15T05:25:34;101793.52;;;-0.45;73.27
74403;BME280;62837;51.082;13.744;2023-02-15T05:28:23;101790.64;;;-0.47;73.45
74403;BME280;62837;51.082;13.744;2023-02-15T05:31:04;101787.80;;;-0.47;73.33
74403;BME280;62837;51.082;13.744;2023-02-15T05:33:36;101788.63;;;-0.45;73.74
74403;BME280;62837;51.082;13.744;2023-02-15T05:36:08;101791.27;;;-0.42;73.85
74403;BME280;62837;51.082;13.744;2023-02-15T05:38:39;101788.59;;;-0.40;73.83
74403;BME280;62837;51.082;13.744;2023-02-15T05:41:11;101789.02;;;-0.41;73.93
74403;BME280;62837;51.082;13.744;2023-02-15T05:43:42;101790.61;;;-0.43;73.95
74403;BME280;62837;51.082;13.744;2023-02-15T05:46:13;101792.20;;;-0.42;74.17
74403;BME280;62837;51.082;13.744;2023-02-15T05:48:44;101791.41;;;-0.45;74.14
74403;BME280;62837;51.082;13.744;2023-02-15T05:51:15;101790.67;;;-0.47;74.10
74403;BME280;62837;51.082;13.744;2023-02-15T05:53:46;101791.45;;;-0.49;73.89
74403;BME280;62837;51.082;13.744;2023-02-15T05:56:17;101788.98;;;-0.53;73.77
74403;BME280;62837;51.082;13.744;2023-02-15T05:58:47;101786.50;;;-0.54;73.89
74403;BME280;62837;51.082;13.744;2023-02-15T06:01:19;101794.56;;;-0.55;73.67
74403;BME280;62837;51.082;13.744;2023-02-15T06:03:52;101795.15;;;-0.56;73.77
74403;BME280;62837;51.082;13.744;2023-02-15T06:06:23;101793.70;;;-0.56;73.87
74403;BME280;62837;51.082;13.744;2023-02-15T06:08:54;101792.65;;;-0.56;73.98
74403;BME280;62837;51.082;13.744;2023-02-15T06:11:25;101788.75;;;-0.56;74.10
74403;BME280;62837;51.082;13.744;2023-02-15T06:13:55;101786.16;;;-0.56;74.01
74403;BME280;62837;51.082;13.744;2023-02-15T06:16:26;101787.55;;;-0.55;74.53
74403;BME280;62837;51.082;13.744;2023-02-15T06:18:57;101786.39;;;-0.56;74.94
74403;BME280;62837;51.082;13.744;2023-02-15T06:21:28;101786.90;;;-0.56;75.04
74403;BME280;62837;51.082;13.744;2023-02-15T06:24:00;101786.73;;;-0.56;75.21
74403;BME280;62837;51.082;13.744;2023-02-15T06:26:30;101786.17;;;-0.54;75.41
74403;BME280;62837;51.082;13.744;2023-02-15T06:29:02;101784.56;;;-0.53;75.47
74403;BME280;62837;51.082;13.744;2023-02-15T06:31:32;101787.80;;;-0.51;75.54
74403;BME280;62837;51.082;13.744;2023-02-15T06:34:03;101786.58;;;-0.50;75.81
74403;BME280;62837;51.082;13.744;2023-02-15T06:36:35;101785.98;;;-0.47;75.59
74403;BME280;62837;51.082;13.744;2023-02-15T06:39:06;101781.58;;;-0.46;75.65
74403;BME280;62837;51.082;13.744;2023-02-15T06:41:37;101781.06;;;-0.30;79.86
74403;BME280;62837;51.082;13.744;2023-02-15T06:44:08;101779.33;;;-0.10;77.48
74403;BME280;62837;51.082;13.744;2023-02-15T06:46:38;101777.94;;;-0.03;76.39
74403;BME280;62837;51.082;13.744;2023-02-15T06:49:09;101783.16;;;-0.02;75.91
74403;BME280;62837;51.082;13.744;2023-02-15T06:51:40;101781.61;;;-0.04;75.75
74403;BME280;62837;51.082;13.744;2023-02-15T06:54:11;101781.91;;;-0.07;75.74
74403;BME280;62837;51.082;13.744;2023-02-15T06:56:42;101785.00;;;-0.09;75.46
74403;BME280;62837;51.082;13.744;2023-02-15T06:59:13;101774.02;;;-0.11;75.80
74403;BME280;62837;51.082;13.744;2023-02-15T07:01:44;101769.75;;;-0.08;75.80
74403;BME280;62837;51.082;13.744;2023-02-15T07:04:15;101768.97;;;-0.04;76.43
74403;BME280;62837;51.082;13.744;2023-02-15T07:06:45;101765.08;;;0.03;76.63
74403;BME280;62837;51.082;13.744;2023-02-15T07:09:16;101766.23;;;0.12;76.72
74403;BME280;62837;51.082;13.744;2023-02-15T07:11:47;101763.86;;;0.26;76.67
74403;BME280;62837;51.082;13.744;2023-02-15T07:14:35;101763.91;;;0.43;76.86
74403;BME280;62837;51.082;13.744;2023-02-15T07:17:06;101754.77;;;0.65;76.73
74403;BME280;62837;51.082;13.744;2023-02-15T07:20:22;101753.90;;;1.08;76.97
74403;BME280;62837;51.082;13.744;2023-02-15T07:22:53;101750.02;;;1.49;76.49
74403;BME280;62837;51.082;13.744;2023-02-15T07:25:24;101744.35;;;1.90;76.37
74403;BME280;62837;51.082;13.744;2023-02-15T07:27:58;101742.19;;;2.34;75.84
74403;BME280;62837;51.082;13.744;2023-02-15T07:30:30;101740.30;;;2.77;75.48
74403;BME280;62837;51.082;13.744;2023-02-15T07:33:01;101739.12;;;3.14;74.38
74403;BME280;62837;51.082;13.744;2023-02-15T07:35:50;101718.09;;;3.38;73.94
74403;BME280;62837;51.082;13.744;2023-02-15T07:38:22;101731.58;;;3.85;73.76
74403;BME280;62837;51.082;13.744;2023-02-15T07:40:59;101729.81;;;4.18;72.90
74403;BME280;62837;51.082;13.744;2023-02-15T07:43:32;101726.80;;;4.51;72.63
74403;BME280;62837;51.082;13.744;2023-02-15T07:46:02;101719.32;;;4.85;71.55
74403;BME280;62837;51.082;13.744;2023-02-15T07:48:33;101720.35;;;5.09;70.80
74403;BME280;62837;51.082;13.744;2023-02-15T07:51:05;101711.11;;;5.36;71.28
74403;BME280;62837;51.082;13.744;2023-02-15T07:53:38;101710.69;;;5.72;71.22
74403;BME280;62837;51.082;13.744;2023-02-15T07:56:11;101708.14;;;5.97;70.43
74403;BME280;62837;51.082;13.744;2023-02-15T07:58:43;101703.64;;;6.33;71.87
74403;BME280;62837;51.082;13.744;2023-02-15T08:01:26;101699.76;;;6.56;68.75
74403;BME280;62837;51.082;13.744;2023-02-15T08:03:57;101693.14;;;6.70;67.18
74403;BME280;62837;51.082;13.744;2023-02-15T08:06:30;101691.41;;;6.83;66.35
74403;BME280;62837;51.082;13.744;2023-02-15T08:09:02;101688.55;;;6.91;65.96
74403;BME280;62837;51.082;13.744;2023-02-15T08:11:34;101685.69;;;7.00;64.75
74403;BME280;62837;51.082;13.744;2023-02-15T08:14:10;101679.52;;;7.05;64.76
74403;BME280;62837;51.082;13.744;2023-02-15T08:16:43;101678.73;;;7.19;64.61
74403;BME280;62837;51.082;13.744;2023-02-15T08:19:17;101676.69;;;7.37;64.37
74403;BME280;62837;51.082;13.744;2023-02-15T08:21:50;101668.50;;;7.53;63.54
74403;BME280;62837;51.082;13.744;2023-02-15T08:24:20;101670.96;;;7.65;63.36
74403;BME280;62837;51.082;13.744;2023-02-15T08:26:52;101668.41;;;7.78;61.83
74403;BME280;62837;51.082;13.744;2023-02-15T08:29:25;101667.96;;;7.83;61.92
74403;BME280;62837;51.082;13.744;2023-02-15T08:31:57;101663.54;;;7.95;61.87
74403;BME280;62837;51.082;13.744;2023-02-15T08:34:33;101664.50;;;8.12;61.05
74403;BME280;62837;51.082;13.744;2023-02-15T08:37:04;101666.89;;;8.21;61.12
74403;BME280;62837;51.082;13.744;2023-02-15T08:39:35;101662.64;;;8.31;60.27
74403;BME280;62837;51.082;13.744;2023-02-15T08:42:06;101658.38;;;8.38;60.36
74403;BME280;62837;51.082;13.744;2023-02-15T08:44:37;101656.76;;;8.47;59.54
74403;BME280;62837;51.082;13.744;2023-02-15T08:47:08;101656.63;;;8.51;59.49
74403;BME280;62837;51.082;13.744;2023-02-15T08:49:38;101659.35;;;8.59;59.42
74403;BME280;62837;51.082;13.744;2023-02-15T08:52:09;101660.40;;;8.71;58.99
74403;BME280;62837;51.082;13.744;2023-02-15T08:54:40;101658.90;;;8.79;58.61
74403;BME280;62837;51.082;13.744;2023-02-15T08:57:10;101657.63;;;8.84;58.30
74403;BME280;62837;51.082;13.744;2023-02-15T08:59:41;101652.79;;;8.89;57.87
74403;BME280;62837;51.082;13.744;2023-02-15T09:02:12;101642.39;;;8.92;57.71
74403;BME280;62837;51.082;13.744;2023-02-15T09:04:43;101644.58;;;9.02;57.04
74403;BME280;62837;51.082;13.744;2023-02-15T09:07:14;101647.34;;;9.08;57.13
74403;BME280;62837;51.082;13.744;2023-02-15T09:09:46;101651.42;;;9.12;56.97
74403;BME280;62837;51.082;13.744;2023-02-15T09:12:17;101652.50;;;9.15;56.48
74403;BME280;62837;51.082;13.744;2023-02-15T09:14:48;101649.29;;;9.08;55.94
74403;BME280;62837;51.082;13.744;2023-02-15T09:17:19;101645.73;;;8.99;55.95
74403;BME280;62837;51.082;13.744;2023-02-15T09:19:49;101646.61;;;8.95;56.14
74403;BME280;62837;51.082;13.744;2023-02-15T09:22:20;101642.04;;;8.86;55.99
74403;BME280;62837;51.082;13.744;2023-02-15T09:24:51;101647.58;;;8.84;56.11
74403;BME280;62837;51.082;13.744;2023-02-15T09:27:21;101642.33;;;8.88;56.07
74403;BME280;62837;51.082;13.744;2023-02-15T09:29:52;101639.29;;;8.91;56.12
74403;BME280;62837;51.082;13.744;2023-02-15T09:32:23;101637.30;;;8.99;56.13
74403;BME280;62837;51.082;13.744;2023-02-15T09:34:53;101638.91;;;9.06;55.96
74403;BME280;62837;51.082;13.744;2023-02-15T09:37:25;101638.64;;;9.11;55.67
74403;BME280;62837;51.082;13.744;2023-02-15T09:39:55;101644.19;;;9.16;55.45
74403;BME280;62837;51.082;13.744;2023-02-15T09:42:54;101637.80;;;9.17;55.67
74403;BME280;62837;51.082;13.744;2023-02-15T09:45:44;101637.98;;;9.24;55.74
74403;BME280;62837;51.082;13.744;2023-02-15T09:48:40;101634.90;;;9.28;55.54
74403;BME280;62837;51.082;13.744;2023-02-15T09:51:43;101631.58;;;9.33;55.37
74403;BME280;62837;51.082;13.744;2023-02-15T09:54:35;101635.25;;;9.34;55.01
74403;BME280;62837;51.082;13.744;2023-02-15T09:57:16;101632.05;;;9.40;54.98
74403;BME280;62837;51.082;13.744;2023-02-15T09:59:55;101630.29;;;9.44;55.02
74403;BME280;62837;51.082;13.744;2023-02-15T10:02:39;101625.71;;;9.45;54.63
74403;BME280;62837;51.082;13.744;2023-02-15T10:05:25;101618.63;;;9.45;54.53
74403;BME280;62837;51.082;13.744;2023-02-15T10:08:14;101618.20;;;9.39;54.53
74403;BME280;62837;51.082;13.744;2023-02-15T10:10:52;101617.20;;;9.42;54.57
74403;BME280;62837;51.082;13.744;2023-02-15T10:13:34;101615.04;;;9.43;54.11
74403;BME280;62837;51.082;13.744;2023-02-15T10:16:18;101609.24;;;9.39;54.38
74403;BME280;62837;51.082;13.744;2023-02-15T10:19:00;101612.58;;;9.39;54.79
74403;BME280;62837;51.082;13.744;2023-02-15T10:21:49;101616.69;;;9.38;54.53
74403;BME280;62837;51.082;13.744;2023-02-15T10:24:48;101608.02;;;9.34;54.60
74403;BME280;62837;51.082;13.744;2023-02-15T10:27:25;101607.60;;;9.33;54.77
74403;BME280;62837;51.082;13.744;2023-02-15T10:30:05;101605.50;;;9.37;54.84
74403;BME280;62837;51.082;13.744;2023-02-15T10:32:51;101606.79;;;9.41;54.58
74403;BME280;62837;51.082;13.744;2023-02-15T10:35:29;101601.30;;;9.46;54.85
74403;BME280;62837;51.082;13.744;2023-02-15T10:38:08;101598.38;;;9.50;54.63
74403;BME280;62837;51.082;13.744;2023-02-15T10:40:49;101594.27;;;9.48;54.74
74403;BME280;62837;51.082;13.744;2023-02-15T10:43:41;101588.09;;;9.44;54.35
74403;BME280;62837;51.082;13.744;2023-02-15T10:46:24;101578.60;;;9.41;54.14
74403;BME280;62837;51.082;13.744;2023-02-15T10:49:20;101574.94;;;9.35;54.54
74403;BME280;62837;51.082;13.744;2023-02-15T10:52:05;101573.04;;;9.29;54.51
74403;BME280;62837;51.082;13.744;2023-02-15T10:54:45;101568.59;;;9.31;54.99
74403;BME280;62837;51.082;13.744;2023-02-15T10:57:26;101569.16;;;9.33;54.72
74403;BME280;62837;51.082;13.744;2023-02-15T11:00:07;101564.37;;;9.25;54.59
74403;BME280;62837;51.082;13.744;2023-02-15T11:02:54;101565.38;;;9.19;54.42
74403;BME280;62837;51.082;13.744;2023-02-15T11:05:37;101567.60;;;9.09;54.84
74403;BME280;62837;51.082;13.744;2023-02-15T11:08:11;101559.95;;;9.03;55.05
74403;BME280;62837;51.082;13.744;2023-02-15T11:10:45;101553.45;;;9.04;55.24
74403;BME280;62837;51.082;13.744;2023-02-15T11:13:22;101545.95;;;9.00;55.08
74403;BME280;62837;51.082;13.744;2023-02-15T11:15:55;101547.54;;;9.03;55.34
74403;BME280;62837;51.082;13.744;2023-02-15T11:18:32;101551.80;;;9.03;55.13
74403;BME280;62837;51.082;13.744;2023-02-15T11:21:07;101548.28;;;9.00;55.07
74403;BME280;62837;51.082;13.744;2023-02-15T11:23:43;101543.88;;;8.97;54.91
74403;BME280;62837;51.082;13.744;2023-02-15T11:26:19;101542.63;;;8.94;55.02
74403;BME280;62837;51.082;13.744;2023-02-15T11:28:55;101539.64;;;8.92;55.30
74403;BME280;62837;51.082;13.744;2023-02-15T11:31:41;101539.58;;;8.89;54.80
74403;BME280;62837;51.082;13.744;2023-02-15T11:34:18;101534.11;;;8.86;55.15
74403;BME280;62837;51.082;13.744;2023-02-15T11:36:52;101533.60;;;8.86;55.64
74403;BME280;62837;51.082;13.744;2023-02-15T11:39:25;101532.75;;;8.86;55.38
74403;BME280;62837;51.082;13.744;2023-02-15T11:42:01;101533.37;;;8.87;55.38
74403;BME280;62837;51.082;13.744;2023-02-15T11:44:36;101525.73;;;8.88;55.65
74403;BME280;62837;51.082;13.744;2023-02-15T11:47:08;101523.70;;;8.88;55.22
74403;BME280;62837;51.082;13.744;2023-02-15T11:49:40;101522.09;;;8.84;55.51
74403;BME280;62837;51.082;13.744;2023-02-15T11:52:14;101524.26;;;8.81;55.15
74403;BME280;62837;51.082;13.744;2023-02-15T11:54:51;101520.21;;;8.77;55.35
74403;BME280;62837;51.082;13.744;2023-02-15T11:57:27;101516.76;;;8.72;55.17
74403;BME280;62837;51.082;13.744;2023-02-15T12:00:12;101517.92;;;8.68;55.96
74403;BME280;62837;51.082;13.744;2023-02-15T12:02:49;101511.18;;;8.65;55.40
74403;BME280;62837;51.082;13.744;2023-02-15T12:05:24;101507.86;;;8.62;55.91
74403;BME280;62837;51.082;13.744;2023-02-15T12:08:00;101508.62;;;8.65;55.73
74403;BME280;62837;51.082;13.744;2023-02-15T12:10:36;101503.38;;;8.66;56.11
74403;BME280;62837;51.082;13.744;2023-02-15T12:13:13;101507.84;;;8.67;55.90
74403;BME280;62837;51.082;13.744;2023-02-15T12:15:46;101503.73;;;8.62;55.86
74403;BME280;62837;51.082;13.744;2023-02-15T12:18:35;101500.42;;;8.60;56.29
74403;BME280;62837;51.082;13.744;2023-02-15T12:21:09;101499.02;;;8.62;56.06
74403;BME280;62837;51.082;13.744;2023-02-15T12:23:46;101495.48;;;8.60;55.50
74403;BME280;62837;51.082;13.744;2023-02-15T12:26:25;101489.63;;;8.56;55.82
74403;BME280;62837;51.082;13.744;2023-02-15T12:29:00;101488.21;;;8.52;56.20
74403;BME280;62837;51.082;13.744;2023-02-15T12:31:36;101485.86;;;8.52;56.03
74403;BME280;62837;51.082;13.744;2023-02-15T12:34:15;101480.74;;;8.51;56.10
74403;BME280;62837;51.082;13.744;2023-02-15T12:36:50;101474.80;;;8.48;56.10
74403;BME280;62837;51.082;13.744;2023-02-15T12:39:25;101470.92;;;8.53;56.11
74403;BME280;62837;51.082;13.744;2023-02-15T12:42:03;101465.50;;;8.57;56.17
74403;BME280;62837;51.082;13.744;2023-02-15T12:44:35;101463.03;;;8.62;56.23
74403;BME280;62837;51.082;13.744;2023-02-15T12:47:18;101460.62;;;8.65;55.92
74403;BME280;62837;51.082;13.744;2023-02-15T12:50:08;101454.59;;;8.64;55.69
74403;BME280;62837;51.082;13.744;2023-02-15T12:52:48;101454.48;;;8.67;55.88
74403;BME280;62837;51.082;13.744;2023-02-15T12:55:24;101456.08;;;8.70;56.05
74403;BME280;62837;51.082;13.744;2023-02-15T12:58:15;101453.67;;;8.70;55.43
74403;BME280;62837;51.082;13.744;2023-02-15T13:00:48;101451.11;;;8.68;55.09
74403;BME280;62837;51.082;13.744;2023-02-15T13:03:33;101442.56;;;8.64;55.00
74403;BME280;62837;51.082;13.744;2023-02-15T13:06:05;101442.95;;;8.63;55.30
74403;BME280;62837;51.082;13.744;2023-02-15T13:08:45;101441.81;;;8.62;55.62
74403;BME280;62837;51.082;13.744;2023-02-15T13:11:24;101441.04;;;8.63;55.93
74403;BME280;62837;51.082;13.744;2023-02-15T13:14:01;101441.85;;;8.66;55.55
74403;BME280;62837;51.082;13.744;2023-02-15T13:16:34;101442.75;;;8.67;55.78
74403;BME280;62837;51.082;13.744;2023-02-15T13:19:12;101440.51;;;8.67;56.05
74403;BME280;62837;51.082;13.744;2023-02-15T13:21:47;101438.14;;;8.64;55.66
74403;BME280;62837;51.082;13.744;2023-02-15T13:24:22;101439.71;;;8.61;55.95
74403;BME280;62837;51.082;13.744;2023-02-15T13:26:57;101441.83;;;8.59;55.80
74403;BME280;62837;51.082;13.744;2023-02-15T13:29:45;101440.08;;;8.56;55.69
74403;BME280;62837;51.082;13.744;2023-02-15T13:32:26;101430.90;;;8.53;55.63
74403;BME280;62837;51.082;13.744;2023-02-15T13:35:00;101436.09;;;8.52;55.79
74403;BME280;62837;51.082;13.744;2023-02-15T13:37:48;101436.98;;;8.52;56.02
74403;BME280;62837;51.082;13.744;2023-02-15T13:40:28;101435.71;;;8.52;56.02